createdAt,value
2024-03-14T00:02:58.564Z,9.31
2024-03-14T00:06:08.323Z,9.29
2024-03-14T00:09:15.734Z,9.33
2024-03-14T00:12:22.298Z,9.26
2024-03-14T00:15:28.698Z,9.23
2024-03-14T00:18:34.608Z,9.24
2024-03-14T00:21:44.396Z,9.27
2024-03-14T00:24:51.352Z,9.31
2024-03-14T00:27:58.860Z,9.33
2024-03-14T00:31:05.579Z,9.34
2024-03-14T00:34:13.582Z,9.38
2024-03-14T00:37:21.697Z,9.37
2024-03-14T00:40:28.014Z,9.30
2024-03-14T00:43:34.459Z,9.33
2024-03-14T00:46:41.594Z,9.34
2024-03-14T00:49:47.006Z,9.33
2024-03-14T00:52:55.915Z,9.31
2024-03-14T00:56:03.222Z,9.32
2024-03-14T00:59:11.105Z,9.22
2024-03-14T01:02:16.730Z,9.21
2024-03-14T01:05:22.920Z,9.24
2024-03-14T01:08:31.654Z,9.25
2024-03-14T01:11:37.844Z,9.27
2024-03-14T01:14:43.280Z,9.30
2024-03-14T01:17:49.627Z,9.29
2024-03-14T01:20:55.426Z,9.32
2024-03-14T01:24:05.134Z,9.33
2024-03-14T01:27:11.009Z,9.34
2024-03-14T01:30:17.582Z,9.34
2024-03-14T01:33:23.162Z,9.37
2024-03-14T01:36:30.124Z,9.32
2024-03-14T01:39:39.006Z,9.30
2024-03-14T01:42:47.554Z,9.31
2024-03-14T01:45:52.889Z,9.31
2024-03-14T01:48:59.715Z,9.29
2024-03-14T01:52:05.469Z,9.27
2024-03-14T01:55:14.919Z,9.27
2024-03-14T01:58:27.913Z,9.25
2024-03-14T02:01:34.157Z,9.25
2024-03-14T02:04:57.134Z,9.25
2024-03-14T02:08:03.356Z,9.27
2024-03-14T02:11:14.241Z,9.27
2024-03-14T02:14:20.403Z,9.26
2024-03-14T02:17:25.785Z,9.19
2024-03-14T02:20:32.122Z,9.17
2024-03-14T02:23:40.236Z,9.18
2024-03-14T02:26:46.665Z,9.17
2024-03-14T02:29:52.071Z,9.18
2024-03-14T02:32:58.290Z,9.19
2024-03-14T02:36:04.247Z,9.13
2024-03-14T02:39:13.004Z,9.09
2024-03-14T02:42:19.377Z,9.11
2024-03-14T02:45:26.046Z,9.12
2024-03-14T02:48:32.397Z,9.07
2024-03-14T02:51:37.791Z,9.05
2024-03-14T02:54:46.849Z,9.08
2024-03-14T02:57:52.213Z,9.09
2024-03-14T03:00:58.837Z,9.07
2024-03-14T03:04:04.429Z,9.07
2024-03-14T03:07:11.228Z,9.10
2024-03-14T03:10:23.965Z,9.05
2024-03-14T03:13:30.304Z,9.01
2024-03-14T03:16:35.715Z,9.00
2024-03-14T03:19:42.054Z,9.00
2024-03-14T03:23:00.163Z,8.95
2024-03-14T03:26:09.580Z,8.93
2024-03-14T03:29:15.557Z,8.92
2024-03-14T03:32:22.189Z,8.88
2024-03-14T03:35:27.530Z,8.85
2024-03-14T03:38:33.868Z,8.82
2024-03-14T03:41:39.240Z,8.82
2024-03-14T03:44:46.492Z,8.82
2024-03-14T03:47:49.410Z,8.87
2024-03-14T03:50:56.405Z,8.86
2024-03-14T03:53:59.172Z,8.80
2024-03-14T03:57:08.448Z,8.75
2024-03-14T04:00:43.629Z,8.71
2024-03-14T04:03:52.437Z,8.63
2024-03-14T04:06:57.841Z,8.55
2024-03-14T04:10:04.403Z,8.52
2024-03-14T04:13:16.721Z,8.48
2024-03-14T04:16:23.171Z,8.49
2024-03-14T04:19:28.467Z,8.49
2024-03-14T04:22:35.882Z,8.48
2024-03-14T04:25:42.321Z,8.48
2024-03-14T04:28:51.410Z,8.47
2024-03-14T04:31:58.379Z,8.47
2024-03-14T04:35:05.455Z,8.47
2024-03-14T04:38:10.902Z,8.44
2024-03-14T04:41:18.620Z,8.40
2024-03-14T04:44:28.263Z,8.38
2024-03-14T04:47:34.533Z,8.37
2024-03-14T04:50:41.692Z,8.35
2024-03-14T04:53:48.002Z,8.33
2024-03-14T04:56:53.471Z,8.37
2024-03-14T05:00:02.478Z,8.42
2024-03-14T05:03:08.823Z,8.46
2024-03-14T05:06:15.048Z,8.49
2024-03-14T05:09:23.311Z,8.52
2024-03-14T05:12:29.813Z,8.47
2024-03-14T05:15:38.462Z,8.53
2024-03-14T05:18:45.556Z,8.40
2024-03-14T05:21:52.144Z,8.46
2024-03-14T05:25:00.052Z,8.44
2024-03-14T05:28:08.036Z,8.41
2024-03-14T05:31:20.769Z,8.43
2024-03-14T05:34:27.069Z,8.46
2024-03-14T05:37:33.352Z,8.49
2024-03-14T05:40:42.601Z,8.53
2024-03-14T05:43:49.287Z,8.56
2024-03-14T05:47:00.253Z,8.59
2024-03-14T05:50:11.901Z,8.59
2024-03-14T05:53:21.422Z,8.48
2024-03-14T05:56:27.667Z,8.50
2024-03-14T05:59:34.412Z,8.47
2024-03-14T06:02:43.378Z,8.43
2024-03-14T06:05:51.449Z,8.39
2024-03-14T06:08:57.729Z,8.36
2024-03-14T06:12:03.405Z,8.40
2024-03-14T06:15:13.544Z,8.45
2024-03-14T06:18:23.444Z,8.52
2024-03-14T06:21:31.299Z,8.59
2024-03-14T06:24:36.704Z,8.58
2024-03-14T06:27:43.222Z,8.64
2024-03-14T06:30:51.151Z,8.54
2024-03-14T06:34:00.001Z,8.48
2024-03-14T06:37:05.728Z,8.34
2024-03-14T06:40:15.584Z,8.16
2024-03-14T06:43:22.943Z,8.18
2024-03-14T06:46:30.531Z,8.18
2024-03-14T06:49:40.120Z,8.14
2024-03-14T06:52:46.367Z,8.19
2024-03-14T06:55:52.640Z,8.26
2024-03-14T06:58:58.976Z,8.40
2024-03-14T07:02:04.249Z,8.51
2024-03-14T07:05:17.080Z,8.54
2024-03-14T07:08:22.774Z,8.73
2024-03-14T07:11:30.220Z,8.94
2024-03-14T07:14:35.683Z,9.04
2024-03-14T07:17:42.702Z,9.09
2024-03-14T07:20:51.132Z,9.08
2024-03-14T07:23:57.637Z,9.13
2024-03-14T07:27:04.968Z,9.10
2024-03-14T07:30:16.497Z,9.18
2024-03-14T07:33:22.234Z,9.22
2024-03-14T07:36:32.092Z,9.23
2024-03-14T07:39:37.871Z,9.29
2024-03-14T07:42:44.751Z,9.25
2024-03-14T07:45:50.547Z,9.50
2024-03-14T07:48:57.487Z,9.68
2024-03-14T07:52:07.071Z,9.91
2024-03-14T07:55:13.262Z,10.17
2024-03-14T07:58:18.724Z,10.41
2024-03-14T08:01:29.441Z,10.64
2024-03-14T08:04:36.229Z,10.89
2024-03-14T08:07:44.972Z,11.11
2024-03-14T08:10:50.477Z,11.38
2024-03-14T08:14:00.333Z,11.71
2024-03-14T08:17:12.908Z,12.11
2024-03-14T08:20:23.466Z,12.66
2024-03-14T08:23:33.777Z,13.32
2024-03-14T08:26:40.201Z,14.04
2024-03-14T08:29:46.312Z,14.73
2024-03-14T08:32:53.512Z,15.51
2024-03-14T08:35:58.942Z,16.24
2024-03-14T08:39:08.157Z,16.85
2024-03-14T08:42:13.981Z,17.42
2024-03-14T08:45:20.364Z,17.83
2024-03-14T08:48:26.215Z,18.25
2024-03-14T08:51:33.495Z,18.40
2024-03-14T08:54:46.528Z,18.51
2024-03-14T08:57:53.206Z,18.75
2024-03-14T09:00:59.810Z,19.03
2024-03-14T09:04:08.965Z,19.43
2024-03-14T09:07:16.069Z,19.80
2024-03-14T09:10:27.492Z,20.21
2024-03-14T09:13:33.455Z,20.72
2024-03-14T09:16:40.034Z,21.21
2024-03-14T09:19:45.665Z,21.78
2024-03-14T09:22:55.776Z,22.22
2024-03-14T09:26:03.881Z,22.61
2024-03-14T09:29:10.090Z,23.06
2024-03-14T09:32:15.406Z,23.44
2024-03-14T09:35:28.432Z,23.56
2024-03-14T09:38:36.351Z,23.57
2024-03-14T09:41:47.050Z,23.68
2024-03-14T09:44:52.490Z,23.82
2024-03-14T09:48:00.497Z,23.99
2024-03-14T09:51:13.579Z,24.31
2024-03-14T09:54:21.489Z,24.67
2024-03-14T09:57:31.165Z,24.76
2024-03-14T10:00:37.637Z,25.15
2024-03-14T10:03:43.549Z,25.86
2024-03-14T10:06:49.994Z,26.47
2024-03-14T10:09:55.529Z,27.29
2024-03-14T10:13:04.624Z,27.82
2024-03-14T10:16:10.447Z,28.21
2024-03-14T10:19:17.205Z,28.72
2024-03-14T10:22:22.806Z,29.21
2024-03-14T10:25:29.762Z,29.74
2024-03-14T10:28:41.009Z,30.14
2024-03-14T10:31:47.577Z,30.69
2024-03-14T10:34:53.322Z,31.00
2024-03-14T10:38:02.373Z,31.04
2024-03-14T10:41:11.335Z,31.33
2024-03-14T10:44:26.363Z,31.69
2024-03-14T10:47:34.301Z,31.95
2024-03-14T10:50:42.601Z,32.08
2024-03-14T10:53:51.848Z,32.35
2024-03-14T10:57:01.181Z,32.72
2024-03-14T11:00:15.593Z,32.87
2024-03-14T11:03:24.118Z,32.96
2024-03-14T11:06:41.128Z,32.83
2024-03-14T11:10:09.831Z,33.12
2024-03-14T11:13:27.765Z,33.33
2024-03-14T11:16:38.853Z,33.55
2024-03-14T11:19:54.338Z,33.41
2024-03-14T11:23:07.153Z,33.12
2024-03-14T11:26:20.768Z,32.83
2024-03-14T11:29:28.677Z,32.57
2024-03-14T11:32:36.881Z,32.09
2024-03-14T11:35:45.482Z,31.52
2024-03-14T11:38:52.090Z,31.02
2024-03-14T11:42:12.894Z,30.51
2024-03-14T11:45:20.215Z,30.03
2024-03-14T11:48:32.838Z,29.12
2024-03-14T11:51:42.779Z,28.11
2024-03-14T11:54:49.852Z,27.07
2024-03-14T11:57:55.710Z,25.88
2024-03-14T12:01:02.194Z,25.43
2024-03-14T12:04:14.946Z,24.76
2024-03-14T12:07:22.392Z,24.51
2024-03-14T12:10:28.286Z,24.41
2024-03-14T12:13:34.603Z,24.33
2024-03-14T12:16:47.538Z,24.21
2024-03-14T12:20:02.532Z,23.96
2024-03-14T12:23:10.429Z,23.77
2024-03-14T12:26:16.801Z,23.53
2024-03-14T12:29:22.525Z,23.40
2024-03-14T12:32:31.362Z,23.15
2024-03-14T12:35:39.704Z,22.59
2024-03-14T12:38:52.002Z,21.98
2024-03-14T12:41:58.102Z,21.76
2024-03-14T12:45:04.783Z,21.68
2024-03-14T12:48:12.472Z,21.76
2024-03-14T12:51:25.804Z,21.86
2024-03-14T12:54:39.879Z,21.72
2024-03-14T12:57:48.595Z,21.62
2024-03-14T13:00:58.398Z,21.52
2024-03-14T13:04:08.484Z,21.40
2024-03-14T13:07:21.069Z,21.16
2024-03-14T13:10:28.328Z,21.01
2024-03-14T13:13:34.895Z,20.95
2024-03-14T13:16:42.241Z,21.01
2024-03-14T13:19:59.372Z,21.07
2024-03-14T13:23:08.223Z,21.17
2024-03-14T13:26:19.291Z,21.13
2024-03-14T13:29:26.865Z,21.10
2024-03-14T13:32:32.264Z,20.95
2024-03-14T13:35:41.919Z,20.83
2024-03-14T13:38:50.674Z,20.76
2024-03-14T13:41:59.739Z,20.59
2024-03-14T13:45:09.155Z,20.35
2024-03-14T13:48:19.280Z,20.14
2024-03-14T13:51:24.740Z,19.99
2024-03-14T13:54:34.715Z,19.89
2024-03-14T13:57:40.547Z,19.90
2024-03-14T14:00:51.684Z,20.00
2024-03-14T14:04:00.910Z,20.10
2024-03-14T14:07:07.419Z,20.01
2024-03-14T14:10:16.262Z,19.95
2024-03-14T14:13:22.716Z,19.78
2024-03-14T14:16:30.589Z,19.58
2024-03-14T14:19:38.181Z,19.48
2024-03-14T14:22:43.669Z,19.27
2024-03-14T14:25:53.269Z,18.98
2024-03-14T14:28:59.162Z,18.80
2024-03-14T14:32:05.688Z,18.69
2024-03-14T14:35:11.637Z,18.52
2024-03-14T14:38:20.036Z,18.28
2024-03-14T14:41:28.632Z,18.08
2024-03-14T14:44:34.857Z,18.03
2024-03-14T14:47:42.203Z,17.90
2024-03-14T14:50:48.745Z,17.55
2024-03-14T14:53:54.118Z,17.29
2024-03-14T14:57:07.235Z,17.11
2024-03-14T15:00:15.871Z,16.85
2024-03-14T15:03:23.698Z,16.58
2024-03-14T15:06:29.256Z,16.44
2024-03-14T15:09:35.763Z,16.41
2024-03-14T15:12:50.665Z,16.43
2024-03-14T15:16:09.431Z,16.40
2024-03-14T15:19:17.036Z,16.35
2024-03-14T15:22:23.958Z,16.33
2024-03-14T15:25:29.962Z,16.31
2024-03-14T15:28:38.950Z,16.35
2024-03-14T15:31:44.414Z,16.43
2024-03-14T15:34:50.920Z,16.46
2024-03-14T15:37:59.793Z,16.51
2024-03-14T15:41:06.063Z,16.56
2024-03-14T15:44:14.231Z,16.40
2024-03-14T15:47:20.331Z,16.25
2024-03-14T15:50:25.910Z,16.21
2024-03-14T15:53:34.153Z,16.02
2024-03-14T15:56:39.506Z,15.85
2024-03-14T15:59:49.018Z,15.54
2024-03-14T16:02:56.706Z,15.19
2024-03-14T16:06:05.391Z,14.99
2024-03-14T16:09:11.457Z,14.78
2024-03-14T16:12:18.213Z,14.58
2024-03-14T16:15:26.278Z,14.42
2024-03-14T16:18:35.466Z,14.19
2024-03-14T16:21:41.953Z,14.01
2024-03-14T16:24:48.220Z,13.80
2024-03-14T16:27:54.294Z,13.66
2024-03-14T16:31:06.857Z,13.45
2024-03-14T16:34:12.406Z,13.27
2024-03-14T16:37:18.796Z,13.05
2024-03-14T16:40:24.175Z,12.98
2024-03-14T16:43:30.296Z,12.84
2024-03-14T16:46:39.851Z,12.72
2024-03-14T16:49:46.114Z,12.65
2024-03-14T16:52:52.976Z,12.51
2024-03-14T16:55:59.146Z,12.43
2024-03-14T16:59:07.593Z,12.22
2024-03-14T17:02:18.116Z,12.06
2024-03-14T17:05:23.748Z,11.92
2024-03-14T17:08:30.126Z,11.76
2024-03-14T17:11:36.144Z,11.60
2024-03-14T17:14:42.477Z,11.43
2024-03-14T17:17:51.108Z,11.31
2024-03-14T17:21:00.073Z,11.22
2024-03-14T17:24:05.872Z,11.10
2024-03-14T17:27:13.914Z,11.00
2024-03-14T17:30:19.633Z,10.93
2024-03-14T17:33:29.754Z,10.84
2024-03-14T17:36:35.330Z,10.73
2024-03-14T17:39:43.202Z,10.57
2024-03-14T17:42:50.294Z,10.39
2024-03-14T17:45:57.055Z,10.21
2024-03-14T17:49:07.288Z,10.06
2024-03-14T17:52:14.006Z,9.97
2024-03-14T17:55:19.362Z,9.84
2024-03-14T17:58:25.558Z,9.87
2024-03-14T18:01:31.707Z,9.77
2024-03-14T18:04:40.573Z,9.67
2024-03-14T18:07:48.294Z,9.62
2024-03-14T18:10:54.770Z,9.55
2024-03-14T18:14:00.223Z,9.49
2024-03-14T18:17:06.738Z,9.43
2024-03-14T18:20:15.176Z,9.37
2024-03-14T18:23:21.525Z,9.30
2024-03-14T18:26:27.199Z,9.19
2024-03-14T18:29:33.415Z,9.12
2024-03-14T18:32:44.607Z,9.02
2024-03-14T18:35:54.377Z,8.95
2024-03-14T18:39:00.696Z,8.94
2024-03-14T18:42:10.791Z,8.94
2024-03-14T18:45:18.641Z,8.94
2024-03-14T18:48:25.639Z,8.97
2024-03-14T18:51:33.619Z,8.98
2024-03-14T18:54:48.213Z,9.00
2024-03-14T18:57:55.779Z,9.02
2024-03-14T19:01:08.114Z,9.02
2024-03-14T19:04:13.866Z,9.02
2024-03-14T19:07:22.757Z,9.05
2024-03-14T19:10:30.227Z,9.00
2024-03-14T19:13:40.423Z,9.00
2024-03-14T19:16:47.394Z,8.97
2024-03-14T19:19:54.313Z,8.95
2024-03-14T19:23:03.899Z,8.92
2024-03-14T19:26:10.622Z,8.89
2024-03-14T19:29:17.355Z,8.84
2024-03-14T19:32:23.607Z,8.85
2024-03-14T19:35:29.493Z,8.81
2024-03-14T19:38:38.542Z,8.77
2024-03-14T19:41:44.106Z,8.67
2024-03-14T19:44:50.442Z,8.67
2024-03-14T19:47:58.284Z,8.61
2024-03-14T19:51:05.219Z,8.54
2024-03-14T19:54:13.166Z,8.51
2024-03-14T19:57:19.378Z,8.32
2024-03-14T20:00:24.808Z,8.28
2024-03-14T20:03:30.999Z,8.31
2024-03-14T20:06:36.394Z,8.28
2024-03-14T20:09:45.358Z,8.21
2024-03-14T20:12:52.066Z,8.15
2024-03-14T20:15:59.202Z,8.12
2024-03-14T20:19:06.017Z,8.04
2024-03-14T20:22:14.064Z,8.00
2024-03-14T20:25:24.089Z,7.84
2024-03-14T20:28:30.772Z,7.80
2024-03-14T20:31:36.221Z,7.74
2024-03-14T20:34:46.923Z,7.67
2024-03-14T20:37:54.008Z,7.64
2024-03-14T20:41:06.935Z,7.59
2024-03-14T20:44:13.292Z,7.55
2024-03-14T20:47:20.445Z,7.54
2024-03-14T20:50:26.074Z,7.55
2024-03-14T20:53:35.211Z,7.55
2024-03-14T20:56:51.260Z,7.53
2024-03-14T21:00:02.097Z,7.52
2024-03-14T21:03:09.597Z,7.43
2024-03-14T21:06:15.941Z,7.44
2024-03-14T21:09:26.201Z,7.40
2024-03-14T21:12:39.626Z,7.27
2024-03-14T21:15:45.816Z,7.23
2024-03-14T21:18:55.387Z,7.21
2024-03-14T21:22:00.772Z,7.19
2024-03-14T21:25:08.571Z,7.13
2024-03-14T21:28:16.528Z,7.10
2024-03-14T21:31:22.889Z,7.07
2024-03-14T21:34:29.234Z,7.08
2024-03-14T21:37:35.516Z,7.09
2024-03-14T21:40:40.801Z,7.09
2024-03-14T21:43:49.898Z,7.10
2024-03-14T21:46:56.218Z,6.99
2024-03-14T21:50:04.869Z,7.13
2024-03-14T21:53:10.433Z,7.12
2024-03-14T21:56:16.763Z,7.10
2024-03-14T21:59:24.726Z,7.11
2024-03-14T22:02:30.869Z,7.12
2024-03-14T22:05:39.197Z,7.10
2024-03-14T22:08:45.691Z,7.10
2024-03-14T22:11:51.456Z,7.09
2024-03-14T22:15:01.271Z,7.07
2024-03-14T22:18:09.000Z,7.03
2024-03-14T22:21:15.880Z,6.91
2024-03-14T22:24:21.223Z,6.99
2024-03-14T22:27:27.441Z,6.97
2024-03-14T22:30:35.497Z,6.93
2024-03-14T22:33:42.509Z,6.90
2024-03-14T22:36:47.978Z,6.89
2024-03-14T22:39:54.286Z,6.91
2024-03-14T22:42:59.941Z,6.93
2024-03-14T22:46:10.242Z,6.92
2024-03-14T22:49:15.818Z,6.88
2024-03-14T22:52:22.670Z,6.88
2024-03-14T22:55:28.004Z,6.79
2024-03-14T22:58:34.175Z,6.82
2024-03-14T23:01:43.593Z,6.78
2024-03-14T23:04:49.865Z,6.73
2024-03-14T23:07:55.579Z,6.69
2024-03-14T23:11:01.869Z,6.64
2024-03-14T23:14:08.081Z,6.58
2024-03-14T23:17:19.352Z,6.49
2024-03-14T23:20:28.197Z,6.45
2024-03-14T23:23:34.367Z,6.34
2024-03-14T23:26:39.754Z,6.25
2024-03-14T23:29:45.891Z,6.19
2024-03-14T23:32:54.271Z,6.18
2024-03-14T23:36:00.534Z,6.20
2024-03-14T23:39:06.663Z,6.17
2024-03-14T23:42:13.486Z,6.24
2024-03-14T23:45:20.057Z,6.28
2024-03-14T23:48:31.212Z,6.22
2024-03-14T23:51:36.694Z,6.23
2024-03-14T23:54:43.247Z,6.26
2024-03-14T23:57:48.932Z,6.30
